createdAt,value
2023-02-24T10:54:53.015Z,1.91
2023-02-24T10:57:38.311Z,2.06
2023-02-24T11:00:51.799Z,1.91
2023-02-24T11:03:35.769Z,1.85
2023-02-24T11:06:30.361Z,1.85
2023-02-24T11:09:19.113Z,1.98
2023-02-24T11:12:06.857Z,1.95
2023-02-24T11:14:58.225Z,1.98
2023-02-24T11:17:27.779Z,1.98
2023-02-24T11:20:01.227Z,2.00
2023-02-24T11:22:33.949Z,1.99
2023-02-24T11:25:06.882Z,2.15
2023-02-24T11:27:36.183Z,2.18
2023-02-24T11:30:16.903Z,2.16
2023-02-24T11:33:06.508Z,2.16
2023-02-24T11:35:40.822Z,2.16
2023-02-24T11:38:18.675Z,2.10
2023-02-24T11:40:53.336Z,2.08
2023-02-24T11:46:35.305Z,1.95
2023-02-24T11:49:08.457Z,1.98
2023-02-24T11:51:38.625Z,1.96
2023-02-24T11:54:11.782Z,1.93
2023-02-24T11:56:43.996Z,1.91
2023-02-24T11:59:17.744Z,1.90
2023-02-24T12:01:53.403Z,1.88
2023-02-24T12:04:27.304Z,1.90
2023-02-24T12:07:00.798Z,1.89
2023-02-24T12:09:34.633Z,1.92
2023-02-24T12:12:13.702Z,1.93
2023-02-24T12:14:48.715Z,1.96
2023-02-24T12:17:25.323Z,1.95
2023-02-24T12:19:59.509Z,1.87
2023-02-24T12:22:35.522Z,1.96
2023-02-24T12:25:05.039Z,1.95
2023-02-24T12:27:48.221Z,1.96
2023-02-24T12:30:48.581Z,1.90
2023-02-24T12:33:28.941Z,1.65
2023-02-24T12:36:06.120Z,1.69
2023-02-24T12:38:49.602Z,2.02
2023-02-24T12:41:36.994Z,2.01
2023-02-24T12:44:17.277Z,1.93
2023-02-24T12:46:47.962Z,1.98
2023-02-24T12:49:34.455Z,1.82
2023-02-24T12:52:12.959Z,1.79
2023-02-24T12:54:47.741Z,1.69
2023-02-24T12:57:26.720Z,1.67
2023-02-24T12:59:57.988Z,1.74
2023-02-24T13:02:40.410Z,1.51
2023-02-24T13:05:19.863Z,1.74
2023-02-24T13:08:04.168Z,1.66
2023-02-24T13:10:40.939Z,1.65
2023-02-24T13:13:15.544Z,1.65
2023-02-24T13:15:51.977Z,1.67
2023-02-24T13:18:31.668Z,1.69
2023-02-24T13:21:07.528Z,1.73
2023-02-24T13:23:36.152Z,1.80
2023-02-24T13:26:04.808Z,1.81
2023-02-24T13:28:36.306Z,1.86
2023-02-24T13:31:06.809Z,1.86
2023-02-24T13:33:36.998Z,1.89
2023-02-24T13:36:14.899Z,1.96
2023-02-24T13:38:44.473Z,1.97
2023-02-24T13:41:24.905Z,2.05
2023-02-24T13:43:59.526Z,2.06
2023-02-24T13:46:31.105Z,2.07
2023-02-24T13:49:07.402Z,2.17
2023-02-24T13:51:55.187Z,2.19
2023-02-24T13:54:56.619Z,2.25
2023-02-24T13:57:48.793Z,2.29
2023-02-24T14:00:23.221Z,2.33
2023-02-24T14:02:53.311Z,2.34
2023-02-24T14:05:26.436Z,2.39
2023-02-24T14:07:56.698Z,2.37
2023-02-24T14:10:26.986Z,2.48
2023-02-24T14:13:04.070Z,2.70
2023-02-24T14:15:32.716Z,2.54
2023-02-24T14:18:03.234Z,2.51
2023-02-24T14:20:33.649Z,2.54
2023-02-24T14:23:03.929Z,2.56
2023-02-24T14:25:36.833Z,2.61
2023-02-24T14:28:05.364Z,2.63
2023-02-24T14:30:36.462Z,2.65
2023-02-24T14:33:07.031Z,2.68
2023-02-24T14:35:37.984Z,2.64
2023-02-24T14:38:07.431Z,2.70
2023-02-24T14:40:35.421Z,2.70
2023-02-24T14:43:03.813Z,2.70
2023-02-24T14:45:31.795Z,2.68
2023-02-24T14:47:59.771Z,2.70
2023-02-24T14:50:31.266Z,2.65
2023-02-24T14:53:03.709Z,2.77
2023-02-24T14:55:38.099Z,2.81
2023-02-24T14:58:12.508Z,2.81
2023-02-24T15:00:47.851Z,2.88
2023-02-24T15:03:21.053Z,2.91
2023-02-24T15:05:53.711Z,2.93
2023-02-24T15:08:32.555Z,2.96
2023-02-24T15:11:05.900Z,3.02
2023-02-24T15:13:39.599Z,3.29
2023-02-24T15:16:13.564Z,3.50
2023-02-24T15:18:42.317Z,3.37
2023-02-24T15:21:22.330Z,3.15
2023-02-24T15:23:58.674Z,3.06
2023-02-24T15:26:30.977Z,3.05
2023-02-24T15:29:02.483Z,2.98
2023-02-24T15:31:30.868Z,3.07
2023-02-24T15:34:01.999Z,3.05
2023-02-24T15:36:33.834Z,2.96
2023-02-24T15:39:04.880Z,3.13
2023-02-24T15:41:41.823Z,3.15
2023-02-24T15:44:26.208Z,3.00
2023-02-24T15:46:54.746Z,3.14
2023-02-24T15:49:22.760Z,3.28
2023-02-24T15:51:52.494Z,3.14
2023-02-24T15:54:24.625Z,3.20
2023-02-24T15:56:54.001Z,3.55
2023-02-24T15:59:22.479Z,3.56
2023-02-24T16:01:52.119Z,3.36
2023-02-24T16:04:21.708Z,3.30
2023-02-24T16:06:55.227Z,3.22
2023-02-24T16:09:32.018Z,3.28
2023-02-24T16:12:04.146Z,3.25
2023-02-24T16:14:32.972Z,3.27
2023-02-24T16:17:03.487Z,3.26
2023-02-24T16:19:31.381Z,3.23
2023-02-24T16:22:02.193Z,3.22
2023-02-24T16:24:30.113Z,3.26
2023-02-24T16:26:58.098Z,3.26
2023-02-24T16:29:28.115Z,3.21
2023-02-24T16:31:56.295Z,3.20
2023-02-24T16:34:24.396Z,3.28
2023-02-24T16:36:52.300Z,3.34
2023-02-24T16:39:20.169Z,3.33
2023-02-24T16:41:48.073Z,3.36
2023-02-24T16:44:15.982Z,3.25
2023-02-24T16:46:46.300Z,3.30
2023-02-24T16:49:19.651Z,3.20
2023-02-24T16:51:47.690Z,3.27
2023-02-24T16:54:15.668Z,3.30
2023-02-24T16:56:46.688Z,3.31
2023-02-24T16:59:14.787Z,3.32
2023-02-24T17:01:44.760Z,3.38
2023-02-24T17:04:14.233Z,3.37
2023-02-24T17:06:42.457Z,3.36
2023-02-24T17:09:10.392Z,3.42
2023-02-24T17:11:38.372Z,3.40
2023-02-24T17:14:06.287Z,3.40
2023-02-24T17:16:34.230Z,3.49
2023-02-24T17:19:03.663Z,3.47
2023-02-24T17:21:31.550Z,3.50
2023-02-24T17:23:59.560Z,3.56
2023-02-24T17:26:27.518Z,3.55
2023-02-24T17:28:55.517Z,3.56
2023-02-24T17:31:24.001Z,3.56
2023-02-24T17:33:52.030Z,3.60
2023-02-24T17:36:21.643Z,3.61
2023-02-24T17:38:49.814Z,3.57
2023-02-24T17:41:17.770Z,3.58
2023-02-24T17:43:45.688Z,3.54
2023-02-24T17:46:13.659Z,3.59
2023-02-24T17:48:41.669Z,3.59
2023-02-24T17:51:14.261Z,3.62
2023-02-24T17:53:43.667Z,3.60
2023-02-24T17:56:12.330Z,3.59
2023-02-24T17:58:41.994Z,3.55
2023-02-24T18:01:09.911Z,3.52
2023-02-24T18:03:38.528Z,3.50
2023-02-24T18:06:09.913Z,3.49
2023-02-24T18:08:39.678Z,3.50
2023-02-24T18:11:12.349Z,3.48
2023-02-24T18:13:40.335Z,3.47
2023-02-24T18:16:10.854Z,3.42
2023-02-24T18:18:38.923Z,3.46
2023-02-24T18:21:08.492Z,3.47
2023-02-24T18:23:38.150Z,3.48
2023-02-24T18:26:08.308Z,3.49
2023-02-24T18:28:37.828Z,3.53
2023-02-24T18:31:12.270Z,3.53
2023-02-24T18:33:40.476Z,3.51
2023-02-24T18:36:09.497Z,3.54
2023-02-24T18:38:37.567Z,3.55
2023-02-24T18:41:07.350Z,3.59
2023-02-24T18:43:37.349Z,3.60
2023-02-24T18:46:07.549Z,3.67
2023-02-24T18:48:35.956Z,3.59
2023-02-24T18:51:04.718Z,3.63
2023-02-24T18:53:36.742Z,3.48
2023-02-24T18:56:06.681Z,3.55
2023-02-24T18:58:37.009Z,3.63
2023-02-24T19:01:13.473Z,3.63
2023-02-24T19:03:42.177Z,3.66
2023-02-24T19:06:10.313Z,3.65
2023-02-24T19:08:38.636Z,3.66
2023-02-24T19:11:11.292Z,3.64
2023-02-24T19:13:39.785Z,3.60
2023-02-24T19:16:08.696Z,3.66
2023-02-24T19:18:38.048Z,3.63
2023-02-24T19:21:07.227Z,3.61
2023-02-24T19:23:35.375Z,3.55
2023-02-24T19:26:03.320Z,3.49
2023-02-24T19:28:31.886Z,3.39
2023-02-24T19:30:59.828Z,3.31
2023-02-24T19:33:27.782Z,3.22
2023-02-24T19:36:00.568Z,2.75
2023-02-24T19:38:28.447Z,3.01
2023-02-24T19:40:59.295Z,2.91
2023-02-24T19:43:27.372Z,2.96
2023-02-24T19:45:55.326Z,2.97
2023-02-24T19:48:23.318Z,3.03
2023-02-24T19:50:51.332Z,3.08
2023-02-24T19:53:20.653Z,2.93
2023-02-24T19:55:50.089Z,3.05
2023-02-24T19:58:18.377Z,3.04
2023-02-24T20:00:47.988Z,3.13
2023-02-24T20:03:16.053Z,3.05
2023-02-24T20:05:44.036Z,2.80
2023-02-24T20:08:11.939Z,2.90
2023-02-24T20:10:41.242Z,2.77
2023-02-24T20:13:09.227Z,2.68
2023-02-24T20:15:37.479Z,2.77
2023-02-24T20:18:08.683Z,2.92
2023-02-24T20:20:37.238Z,2.88
2023-02-24T20:23:05.708Z,2.91
2023-02-24T20:25:33.604Z,3.18
2023-02-24T20:28:03.774Z,3.00
2023-02-24T20:30:31.698Z,3.07
2023-02-24T20:32:59.697Z,3.04
2023-02-24T20:35:28.357Z,3.05
2023-02-24T20:37:56.284Z,3.00
2023-02-24T20:40:24.405Z,3.02
2023-02-24T20:42:52.311Z,3.03
2023-02-24T20:45:21.556Z,3.01
2023-02-24T20:47:49.458Z,3.03
2023-02-24T20:50:17.465Z,3.06
2023-02-24T20:52:45.399Z,3.09
2023-02-24T20:55:13.357Z,3.12
2023-02-24T20:57:41.377Z,3.14
2023-02-24T21:00:10.617Z,3.25
2023-02-24T21:02:41.237Z,3.21
2023-02-24T21:05:10.004Z,3.18
2023-02-24T21:07:38.166Z,3.18
2023-02-24T21:10:07.754Z,3.15
2023-02-24T21:12:35.893Z,3.15
2023-02-24T21:15:04.214Z,3.15
2023-02-24T21:17:34.275Z,3.16
2023-02-24T21:20:03.552Z,3.21
2023-02-24T21:22:31.938Z,3.20
2023-02-24T21:25:00.408Z,3.19
2023-02-24T21:27:28.293Z,3.17
2023-02-24T21:29:56.182Z,3.14
2023-02-24T21:32:24.140Z,3.12
2023-02-24T21:34:52.158Z,3.12
2023-02-24T21:37:21.429Z,2.84
2023-02-24T21:39:49.695Z,3.13
2023-02-24T21:42:17.606Z,3.08
2023-02-24T21:44:45.493Z,3.08
2023-02-24T21:47:13.417Z,3.10
2023-02-24T21:49:41.302Z,3.13
2023-02-24T21:52:11.391Z,3.11
2023-02-24T21:54:42.289Z,3.07
2023-02-24T21:57:10.241Z,3.08
2023-02-24T21:59:38.129Z,3.07
2023-02-24T22:02:05.999Z,3.05
2023-02-24T22:04:34.429Z,3.02
2023-02-24T22:07:02.314Z,2.97
2023-02-24T22:09:30.771Z,2.95
2023-02-24T22:12:00.038Z,2.92
2023-02-24T22:14:28.022Z,2.84
2023-02-24T22:16:55.955Z,2.79
2023-02-24T22:19:24.070Z,2.78
2023-02-24T22:21:52.079Z,2.75
2023-02-24T22:24:20.178Z,2.64
2023-02-24T22:26:48.288Z,2.83
2023-02-24T22:29:17.646Z,2.86
2023-02-24T22:31:49.453Z,2.85
2023-02-24T22:34:17.693Z,2.89
2023-02-24T22:36:45.730Z,2.85
2023-02-24T22:39:16.585Z,2.90
2023-02-24T22:41:45.435Z,2.90
2023-02-24T22:44:14.295Z,2.82
2023-02-24T22:46:43.598Z,2.90
2023-02-24T22:49:11.953Z,2.89
2023-02-24T22:51:39.930Z,2.95
2023-02-24T22:54:07.945Z,2.93
2023-02-24T22:56:35.876Z,2.93
2023-02-24T22:59:03.774Z,2.91
2023-02-24T23:01:33.803Z,2.92
2023-02-24T23:04:04.959Z,2.95
2023-02-24T23:06:33.155Z,2.91
2023-02-24T23:09:02.395Z,2.87
2023-02-24T23:11:31.851Z,2.79
2023-02-24T23:14:02.318Z,2.94
2023-02-24T23:16:32.261Z,2.95
2023-02-24T23:19:01.956Z,2.88
2023-02-24T23:21:34.730Z,2.95
2023-02-24T23:24:03.972Z,2.98
2023-02-24T23:26:33.371Z,3.00
2023-02-24T23:29:01.719Z,3.03
2023-02-24T23:31:30.269Z,2.98
2023-02-24T23:33:58.604Z,3.06
2023-02-24T23:36:27.118Z,3.05
2023-02-24T23:38:57.544Z,3.03
2023-02-24T23:41:25.449Z,3.04
2023-02-24T23:43:53.362Z,2.98
2023-02-24T23:46:21.675Z,2.87
2023-02-24T23:48:52.420Z,3.06
2023-02-24T23:51:21.157Z,3.09
2023-02-24T23:53:49.476Z,3.08
2023-02-24T23:56:20.697Z,3.10
2023-02-24T23:58:52.215Z,3.07
